Time;durP1;ratioP1;P1;durP2;ratioP2;P2;SDS_P1;SDS_P2;PMS_P1;PMS_P2;Temp;Humidity;BMP_temperature;BMP_pressure;BME280_temperature;BME280_humidity;BME280_pressure;Samples;Min_cycle;Max_cycle;Signal;HPM_P1;HPM_P2
2022/07/08 00:00:53;;;;;;;5.20;2.20;;;;;;;19.95;48.45;102891.00;5052457;28;20071;-67
2022/07/08 00:03:21;;;;;;;10.63;2.17;;;;;;;19.91;48.45;102892.25;5051759;28;20049;-68
2022/07/08 00:05:48;;;;;;;13.02;1.98;;;;;;;19.87;48.35;102896.19;5052499;28;20075;-68
2022/07/08 00:08:14;;;;;;;7.75;2.22;;;;;;;19.82;48.39;102896.56;5052520;28;20073;-67
2022/07/08 00:10:41;;;;;;;4.38;1.98;;;;;;;19.82;48.44;102893.84;5052331;28;20052;-68
2022/07/08 00:13:12;;;;;;;8.35;2.10;;;;;;;19.81;48.40;102891.22;5052409;28;20049;-68
2022/07/08 00:15:38;;;;;;;6.95;2.10;;;;;;;19.80;48.86;102900.41;5052255;28;20056;-68
2022/07/08 00:18:05;;;;;;;10.57;2.13;;;;;;;19.79;48.82;102887.75;5052790;28;20049;-68
2022/07/08 00:20:32;;;;;;;9.52;2.30;;;;;;;19.79;48.67;102895.94;5052297;28;20040;-67
2022/07/08 00:23:01;;;;;;;8.00;2.08;;;;;;;19.76;48.73;102904.34;5051713;28;20499;-68
2022/07/08 00:25:28;;;;;;;5.50;1.67;;;;;;;19.74;48.47;102907.19;5052681;28;20080;-68
2022/07/08 00:27:55;;;;;;;7.95;2.10;;;;;;;19.70;48.55;102904.81;5055296;28;20045;-69
2022/07/08 00:30:21;;;;;;;12.88;2.50;;;;;;;19.68;48.52;102905.81;5054136;28;20356;-68
2022/07/08 00:32:49;;;;;;;7.28;3.00;;;;;;;19.68;48.96;102896.75;5055291;28;20409;-68
2022/07/08 00:35:16;;;;;;;8.65;2.00;;;;;;;19.68;49.00;102903.09;5055123;28;20541;-69
2022/07/08 00:37:42;;;;;;;8.27;2.38;;;;;;;19.67;48.62;102906.78;5055119;28;20041;-69
2022/07/08 00:40:11;;;;;;;6.72;1.92;;;;;;;19.66;48.84;102902.34;5054959;28;20037;-68
2022/07/08 00:42:39;;;;;;;6.15;1.88;;;;;;;19.67;48.44;102903.19;5054783;28;20051;-68
2022/07/08 00:45:06;;;;;;;6.55;2.10;;;;;;;19.66;48.76;102901.47;5054845;28;20048;-68
2022/07/08 00:47:33;;;;;;;10.02;2.17;;;;;;;19.63;48.65;102893.53;5055357;28;20048;-69
2022/07/08 00:49:59;;;;;;;7.18;1.90;;;;;;;19.62;48.46;102895.38;5054705;28;20045;-68
2022/07/08 00:52:36;;;;;;;8.05;2.67;;;;;;;19.60;48.70;102893.75;5054666;28;20394;-69
2022/07/08 00:55:03;;;;;;;5.97;1.80;;;;;;;19.60;48.41;102894.63;5054750;28;20068;-68
2022/07/08 00:57:29;;;;;;;4.90;1.90;;;;;;;19.57;48.76;102894.00;5055090;28;20043;-69
2022/07/08 00:59:57;;;;;;;6.65;2.35;;;;;;;19.57;48.65;102900.31;5054659;28;20046;-69
2022/07/08 01:02:31;;;;;;;6.68;1.88;;;;;;;19.58;48.74;102904.78;5054563;28;20029;-69
2022/07/08 01:04:57;;;;;;;8.48;2.08;;;;;;;19.60;48.73;102901.94;5053996;28;20099;-68
2022/07/08 01:07:24;;;;;;;7.20;2.10;;;;;;;19.59;49.01;102906.53;5054571;28;20043;-69
2022/07/08 01:09:51;;;;;;;5.15;2.10;;;;;;;19.59;48.42;102909.25;5054370;28;20394;-68
2022/07/08 01:12:18;;;;;;;6.70;2.33;;;;;;;19.59;48.84;102905.66;5054462;28;20051;-68
2022/07/08 01:14:44;;;;;;;7.93;2.20;;;;;;;19.60;49.06;102912.84;5054054;28;20128;-69
2022/07/08 01:17:11;;;;;;;5.60;1.95;;;;;;;19.61;48.70;102922.75;5054346;28;20048;-67
2022/07/08 01:19:37;;;;;;;5.35;2.00;;;;;;;19.59;48.97;102914.69;5054318;28;20542;-68
2022/07/08 01:22:04;;;;;;;6.90;2.20;;;;;;;19.58;48.54;102904.78;5054566;28;20061;-68
2022/07/08 01:24:31;;;;;;;8.32;2.20;;;;;;;19.56;48.98;102917.66;5054449;28;20068;-69
2022/07/08 01:26:57;;;;;;;3.83;1.90;;;;;;;19.55;48.82;102912.31;5054394;28;20438;-69
2022/07/08 01:29:24;;;;;;;7.13;1.85;;;;;;;19.54;48.55;102918.75;5053324;28;20513;-69
2022/07/08 01:31:52;;;;;;;6.25;1.80;;;;;;;19.51;48.84;102908.94;5054145;28;20037;-69
2022/07/08 01:34:20;;;;;;;6.93;1.73;;;;;;;19.51;48.73;102906.19;5054694;28;20040;-69
2022/07/08 01:36:47;;;;;;;6.70;1.92;;;;;;;19.52;49.05;102904.34;5053706;28;20049;-69
2022/07/08 01:39:14;;;;;;;7.13;2.10;;;;;;;19.49;48.66;102915.47;5054445;28;20041;-69
2022/07/08 01:41:40;;;;;;;7.07;1.70;;;;;;;19.46;49.02;102910.25;5054575;28;20044;-69
2022/07/08 01:44:11;;;;;;;6.35;2.25;;;;;;;19.42;49.01;102906.91;5054916;28;20052;-68
2022/07/08 01:46:38;;;;;;;6.63;1.77;;;;;;;19.37;49.05;102898.22;5054577;28;20045;-69
2022/07/08 01:49:05;;;;;;;7.70;2.22;;;;;;;19.33;48.90;102911.19;5054757;28;20423;-68
2022/07/08 01:51:32;;;;;;;6.63;2.35;;;;;;;19.31;49.16;102907.69;5054587;28;20572;-69
2022/07/08 01:54:00;;;;;;;4.00;1.90;;;;;;;19.31;49.18;102906.81;5054783;28;20069;-69
2022/07/08 01:56:27;;;;;;;6.90;2.17;;;;;;;19.27;49.31;102905.31;5053126;28;20048;-68
2022/07/08 01:58:53;;;;;;;5.18;2.42;;;;;;;19.23;48.90;102899.22;5053483;28;20044;-67
2022/07/08 02:01:20;;;;;;;7.63;1.90;;;;;;;19.22;48.99;102899.34;5053321;28;20064;-68
2022/07/08 02:03:46;;;;;;;4.57;2.05;;;;;;;19.19;49.03;102902.28;5053398;28;20076;-67
2022/07/08 02:06:13;;;;;;;3.22;1.67;;;;;;;19.14;48.91;102905.34;5053301;28;20056;-68
2022/07/08 02:08:40;;;;;;;7.75;2.05;;;;;;;19.12;49.06;102903.75;5053246;28;20407;-68
2022/07/08 02:13:59;;;;;;;6.72;2.15;;;;;;;19.07;49.44;102901.34;5030538;28;20053;-69
2022/07/08 02:16:25;;;;;;;7.57;2.10;;;;;;;19.03;49.13;102908.00;5052323;28;20048;-69
2022/07/08 02:18:52;;;;;;;5.95;1.83;;;;;;;19.00;49.17;102903.66;5053288;28;20406;-69
2022/07/08 02:21:18;;;;;;;5.18;2.10;;;;;;;18.96;49.22;102910.31;5052998;28;20087;-70
2022/07/08 02:23:49;;;;;;;6.70;2.10;;;;;;;18.93;49.36;102907.81;5052929;28;20076;-70
2022/07/08 02:26:16;;;;;;;6.65;1.80;;;;;;;18.91;49.36;102906.19;5052938;28;20079;-69
2022/07/08 02:28:42;;;;;;;7.32;2.53;;;;;;;18.89;49.82;102908.16;5053096;28;20052;-68
2022/07/08 02:31:09;;;;;;;9.50;1.90;;;;;;;18.87;49.53;102902.84;5052726;28;20048;-68
2022/07/08 02:33:37;;;;;;;5.22;2.53;;;;;;;18.87;49.62;102907.41;5053162;28;20123;-68
2022/07/08 02:36:04;;;;;;;6.28;2.20;;;;;;;18.83;49.76;102909.50;5050341;28;20040;-67
2022/07/08 02:38:30;;;;;;;4.80;2.17;;;;;;;18.78;49.57;102908.09;5052917;28;20044;-68
2022/07/08 02:40:57;;;;;;;7.72;2.38;;;;;;;18.73;49.76;102906.56;5052908;28;20045;-68
2022/07/08 02:43:30;;;;;;;5.50;2.20;;;;;;;18.69;49.71;102910.50;5052545;28;20437;-68
2022/07/08 02:45:56;;;;;;;9.98;2.38;;;;;;;18.70;50.20;102911.38;5052711;28;20547;-67
2022/07/08 02:48:23;;;;;;;7.13;2.53;;;;;;;18.67;49.88;102907.03;5051785;28;20423;-68
2022/07/08 02:50:50;;;;;;;7.43;2.45;;;;;;;18.66;50.03;102913.44;5052432;28;20084;-68
2022/07/08 02:53:19;;;;;;;6.95;2.10;;;;;;;18.63;49.75;102910.06;5052568;28;20037;-68
2022/07/08 02:55:46;;;;;;;7.43;1.98;;;;;;;18.58;49.79;102914.91;5052042;28;20419;-68
2022/07/08 02:58:12;;;;;;;5.75;2.90;;;;;;;18.55;50.29;102917.84;5052353;28;20044;-68
2022/07/08 03:00:39;;;;;;;8.50;2.33;;;;;;;18.52;50.39;102916.22;5052245;28;20554;-68
2022/07/08 03:03:07;;;;;;;8.68;2.38;;;;;;;18.49;50.03;102905.56;5052596;28;20047;-68
2022/07/08 03:05:34;;;;;;;5.90;2.72;;;;;;;18.49;50.25;102910.13;5052266;28;20044;-68
2022/07/08 03:08:00;;;;;;;8.60;2.50;;;;;;;18.46;50.36;102905.78;5052219;28;20550;-68
2022/07/08 03:10:27;;;;;;;7.47;2.55;;;;;;;18.43;49.94;102914.16;5051786;28;20479;-68
2022/07/08 03:12:55;;;;;;;5.70;2.53;;;;;;;18.35;50.03;102917.44;5052173;28;20041;-68
2022/07/08 03:15:22;;;;;;;6.22;2.72;;;;;;;18.31;49.85;102920.47;5051795;28;20029;-68
2022/07/08 03:17:48;;;;;;;5.45;3.20;;;;;;;18.24;50.01;102920.03;5050604;28;20499;-68
2022/07/08 03:20:15;;;;;;;5.65;2.95;;;;;;;18.18;50.44;102920.47;5051864;28;20059;-68
2022/07/08 03:22:43;;;;;;;6.25;2.42;;;;;;;18.10;50.39;102915.59;5051961;28;20056;-68
2022/07/08 03:25:11;;;;;;;9.60;2.92;;;;;;;18.04;50.17;102921.44;5051383;28;20498;-68
2022/07/08 03:27:37;;;;;;;7.43;2.63;;;;;;;17.98;50.49;102921.00;5051708;28;20403;-68
2022/07/08 03:30:05;;;;;;;5.53;2.67;;;;;;;17.92;50.10;102919.59;5051927;28;20052;-68
2022/07/08 03:32:33;;;;;;;8.55;2.80;;;;;;;17.85;50.25;102915.56;5051972;28;20047;-68
2022/07/08 03:35:00;;;;;;;5.93;3.20;;;;;;;17.78;50.65;102916.91;5051524;28;20041;-68
2022/07/08 03:37:26;;;;;;;7.28;2.70;;;;;;;17.72;50.41;102917.34;5051815;28;20041;-68
2022/07/08 03:39:53;;;;;;;8.50;3.25;;;;;;;17.67;50.47;102924.94;5050462;28;20055;-68
2022/07/08 03:42:20;;;;;;;7.43;2.85;;;;;;;17.63;50.60;102923.38;5051136;28;20056;-67
2022/07/08 03:44:47;;;;;;;8.73;3.45;;;;;;;17.58;50.57;102925.53;5052057;28;20087;-68
2022/07/08 03:47:13;;;;;;;5.82;2.83;;;;;;;17.55;50.65;102928.44;5051812;28;20045;-68
2022/07/08 03:49:40;;;;;;;7.72;3.50;;;;;;;17.49;51.03;102921.59;5052297;28;20120;-68
2022/07/08 03:52:06;;;;;;;8.55;3.42;;;;;;;17.45;51.05;102920.06;5051509;28;20041;-68
2022/07/08 03:54:36;;;;;;;4.90;2.95;;;;;;;17.41;51.10;102930.25;5051537;28;20048;-68
2022/07/08 03:57:03;;;;;;;7.97;3.55;;;;;;;17.39;50.87;102925.91;5051494;28;20049;-68
2022/07/08 03:59:30;;;;;;;5.18;3.03;;;;;;;17.33;51.07;102929.91;5050820;28;20033;-68
2022/07/08 04:01:57;;;;;;;7.43;3.50;;;;;;;17.29;51.48;102917.50;5051274;28;20072;-69
2022/07/08 04:04:23;;;;;;;7.90;3.10;;;;;;;17.26;51.16;102924.97;5051602;28;20553;-69
2022/07/08 04:06:50;;;;;;;8.95;3.65;;;;;;;17.23;51.33;102930.59;5050953;28;20041;-68
2022/07/08 04:09:16;;;;;;;10.52;4.00;;;;;;;17.22;51.56;102928.88;5051483;28;20048;-68
2022/07/08 04:11:43;;;;;;;5.20;3.50;;;;;;;17.20;51.75;102923.53;5049995;28;20086;-67
2022/07/08 04:14:10;;;;;;;8.88;3.80;;;;;;;17.20;51.64;102931.69;5051568;28;20045;-67
2022/07/08 04:16:36;;;;;;;10.45;4.30;;;;;;;17.19;51.99;102934.50;5050647;28;20505;-67
2022/07/08 04:19:03;;;;;;;6.60;4.20;;;;;;;17.18;51.67;102933.63;5049738;28;20049;-67
2022/07/08 04:21:29;;;;;;;6.65;3.92;;;;;;;17.16;51.91;102941.00;5051321;28;20049;-67
2022/07/08 04:23:58;;;;;;;7.43;4.93;;;;;;;17.14;52.14;102943.81;5051154;28;20556;-68
2022/07/08 04:26:31;;;;;;;8.88;4.57;;;;;;;17.15;52.30;102944.69;5051402;28;20116;-67
2022/07/08 04:29:01;;;;;;;10.80;5.45;;;;;;;17.17;52.42;102955.44;5051177;28;20073;-67
2022/07/08 04:31:28;;;;;;;8.60;4.82;;;;;;;17.17;52.16;102952.72;5051063;28;20040;-67
2022/07/08 04:33:55;;;;;;;7.38;4.97;;;;;;;17.15;52.14;102950.13;5050578;28;20048;-68
2022/07/08 04:36:23;;;;;;;8.35;5.00;;;;;;;17.15;52.65;102951.00;5051149;28;20045;-68
2022/07/08 04:38:50;;;;;;;7.10;4.90;;;;;;;17.17;52.70;102941.88;5050976;28;20439;-68
2022/07/08 04:41:16;;;;;;;10.57;4.97;;;;;;;17.18;52.85;102949.03;5051068;28;20041;-68
2022/07/08 04:43:44;;;;;;;10.80;4.65;;;;;;;17.18;52.96;102954.47;5051018;28;20037;-68
2022/07/08 04:46:14;;;;;;;10.45;5.50;;;;;;;17.20;52.74;102952.53;5050892;28;20064;-69
2022/07/08 04:48:41;;;;;;;10.13;5.38;;;;;;;17.24;52.87;102956.78;5051151;28;20052;-68
2022/07/08 04:51:07;;;;;;;10.02;5.00;;;;;;;17.27;52.93;102964.75;5051172;28;20041;-68
2022/07/08 04:53:37;;;;;;;11.07;5.63;;;;;;;17.30;53.37;102964.53;5050827;28;20041;-68
2022/07/08 04:56:04;;;;;;;9.18;5.55;;;;;;;17.33;53.46;102967.03;5050622;28;20040;-68
2022/07/08 04:58:30;;;;;;;10.93;5.07;;;;;;;17.36;53.51;102973.16;5050581;28;20513;-68
2022/07/08 05:00:58;;;;;;;7.60;5.30;;;;;;;17.41;53.68;102973.72;5050669;28;20041;-68
2022/07/08 05:03:24;;;;;;;7.93;5.20;;;;;;;17.45;53.74;102980.69;5050519;28;20450;-67
2022/07/08 05:05:52;;;;;;;11.25;5.55;;;;;;;17.50;54.01;102976.78;5050695;28;20503;-68
2022/07/08 05:08:18;;;;;;;10.50;5.57;;;;;;;17.55;53.86;102980.06;5050595;28;20051;-68
2022/07/08 05:10:45;;;;;;;7.35;5.50;;;;;;;17.59;54.48;102977.03;5050592;28;20033;-68
2022/07/08 05:13:12;;;;;;;12.23;5.60;;;;;;;17.66;54.21;102986.56;5053694;28;20041;-69
2022/07/08 05:15:39;;;;;;;7.90;5.40;;;;;;;17.72;54.45;102994.31;5054213;28;20077;-68
2022/07/08 05:18:06;;;;;;;9.90;6.60;;;;;;;17.78;54.48;102993.88;5054338;28;20037;-68
2022/07/08 05:20:32;;;;;;;14.40;5.90;;;;;;;17.85;54.39;102999.81;5054203;28;20048;-68
2022/07/08 05:23:03;;;;;;;11.45;5.55;;;;;;;17.92;54.40;102994.84;5052981;28;20047;-68
2022/07/08 05:25:30;;;;;;;9.82;5.60;;;;;;;17.95;54.41;102998.22;5054257;28;20051;-68
2022/07/08 05:27:56;;;;;;;9.38;6.25;;;;;;;17.99;54.48;102999.75;5053995;28;20047;-68
2022/07/08 05:30:23;;;;;;;9.02;5.20;;;;;;;18.04;54.21;102999.44;5053726;28;20064;-69
2022/07/08 05:32:51;;;;;;;13.35;5.07;;;;;;;18.08;54.58;103000.97;5054116;28;20104;-68
2022/07/08 05:35:18;;;;;;;7.05;4.45;;;;;;;18.13;54.66;103000.66;5053852;28;20513;-69
2022/07/08 05:37:44;;;;;;;13.93;4.50;;;;;;;18.17;54.45;103000.31;5052675;28;20098;-69
2022/07/08 05:40:11;;;;;;;10.38;4.55;;;;;;;18.22;54.27;103006.31;5053998;28;20056;-69
2022/07/08 05:42:39;;;;;;;11.77;4.93;;;;;;;18.28;54.60;103007.75;5053497;28;20086;-69
2022/07/08 05:45:07;;;;;;;11.18;5.20;;;;;;;18.31;54.54;103016.56;5053834;28;20041;-69
2022/07/08 05:47:34;;;;;;;9.48;5.05;;;;;;;18.34;54.71;103010.91;5053611;28;20513;-68
2022/07/08 05:50:00;;;;;;;13.13;5.20;;;;;;;18.38;54.28;103011.56;5053506;28;20063;-68
2022/07/08 05:52:47;;;;;;;10.57;4.47;;;;;;;18.43;54.72;103009.41;5053794;28;20037;-70
2022/07/08 05:55:14;;;;;;;14.15;4.70;;;;;;;18.52;54.52;103007.88;5053466;28;20549;-70
2022/07/08 05:57:40;;;;;;;11.00;4.72;;;;;;;18.61;54.60;103012.69;5052044;28;20472;-69
2022/07/08 06:00:07;;;;;;;8.00;5.13;;;;;;;18.69;54.34;103011.22;5053428;28;20040;-69
2022/07/08 06:02:44;;;;;;;11.23;5.05;;;;;;;18.76;54.24;103008.03;5053242;28;20071;-69
2022/07/08 06:05:11;;;;;;;13.80;5.20;;;;;;;18.82;54.54;103007.59;5037903;28;20033;-70
2022/07/08 06:07:37;;;;;;;14.13;4.95;;;;;;;18.91;54.18;103013.25;5053775;28;20518;-69
2022/07/08 06:10:04;;;;;;;9.40;4.07;;;;;;;19.00;53.81;103011.72;5052244;28;20051;-68
2022/07/08 06:12:35;;;;;;;8.00;4.38;;;;;;;19.09;54.19;103012.91;5053169;28;20036;-69
2022/07/08 06:15:02;;;;;;;8.70;4.93;;;;;;;19.22;53.86;103027.38;5053289;28;20487;-69
2022/07/08 06:17:28;;;;;;;15.52;5.32;;;;;;;19.36;53.99;103022.69;5053254;28;20045;-69
2022/07/08 06:19:55;;;;;;;11.23;5.07;;;;;;;19.45;53.74;103022.97;5053138;28;20044;-69
2022/07/08 06:22:22;;;;;;;12.18;5.28;;;;;;;19.57;53.47;103020.25;5053135;28;20052;-69
2022/07/08 06:24:55;;;;;;;11.40;4.55;;;;;;;19.72;53.21;103023.66;5052497;28;20139;-69
2022/07/08 06:27:22;;;;;;;11.93;5.22;;;;;;;19.85;53.04;103027.22;5053168;28;20509;-69
2022/07/08 06:29:49;;;;;;;12.15;4.40;;;;;;;19.95;52.70;103019.19;5053288;28;20048;-69
2022/07/08 06:32:21;;;;;;;11.75;4.35;;;;;;;20.05;52.77;103016.63;5051510;28;20048;-69
2022/07/08 06:34:54;;;;;;;8.63;4.32;;;;;;;20.12;52.43;103021.53;5053434;28;20040;-69
2022/07/08 06:37:21;;;;;;;6.93;3.80;;;;;;;20.25;52.24;103019.59;5052741;28;20041;-69
2022/07/08 06:39:48;;;;;;;13.32;4.05;;;;;;;20.42;52.34;103031.06;5052934;28;20523;-69
2022/07/08 06:42:15;;;;;;;6.93;3.90;;;;;;;20.55;51.83;103032.72;5051176;28;20148;-69
2022/07/08 06:44:44;;;;;;;8.93;4.28;;;;;;;20.66;51.85;103034.59;5051295;28;20044;-68
2022/07/08 06:47:11;;;;;;;11.93;4.05;;;;;;;20.77;51.50;103029.16;5052780;28;20037;-68
2022/07/08 06:49:45;;;;;;;8.70;4.45;;;;;;;20.86;51.39;103030.31;5052608;28;20095;-67
2022/07/08 06:52:11;;;;;;;10.18;4.78;;;;;;;20.88;50.98;103029.19;5052406;28;20049;-70
2022/07/08 06:54:40;;;;;;;10.13;4.45;;;;;;;20.89;50.83;103028.19;5053017;28;20044;-68
2022/07/08 06:57:10;;;;;;;9.52;3.78;;;;;;;20.91;50.49;103028.06;5052432;28;20028;-68
2022/07/08 06:59:37;;;;;;;8.73;3.60;;;;;;;20.93;50.51;103029.69;5052592;28;20056;-68
2022/07/08 07:02:36;;;;;;;12.63;3.83;;;;;;;21.05;50.86;103036.03;5052447;28;20048;-72
2022/07/08 07:05:03;;;;;;;8.77;3.47;;;;;;;21.15;50.37;103030.69;5051801;28;20098;-68
2022/07/08 07:07:30;;;;;;;11.23;3.78;;;;;;;21.21;50.36;103020.13;5051127;28;20549;-69
2022/07/08 07:09:56;;;;;;;7.32;3.25;;;;;;;21.31;50.15;103024.88;5052284;28;20037;-70
2022/07/08 07:12:30;;;;;;;11.98;3.50;;;;;;;21.36;50.16;103018.03;5051958;28;20083;-69
2022/07/08 07:14:57;;;;;;;8.60;3.30;;;;;;;21.42;50.11;103024.84;5052298;28;20045;-69
2022/07/08 07:17:23;;;;;;;9.90;3.13;;;;;;;21.48;49.50;103022.47;5052454;28;20060;-68
2022/07/08 07:19:50;;;;;;;9.82;2.80;;;;;;;21.56;49.59;103017.25;5052047;28;20064;-67
2022/07/08 07:22:28;;;;;;;8.07;2.67;;;;;;;21.75;49.74;103023.94;5052420;28;20135;-69
2022/07/08 07:24:55;;;;;;;6.75;2.42;;;;;;;21.91;49.47;103037.16;5051447;28;20078;-68
2022/07/08 07:27:22;;;;;;;6.47;2.25;;;;;;;22.06;49.35;103027.69;5051995;28;20479;-68
2022/07/08 07:29:48;;;;;;;9.70;2.97;;;;;;;22.22;49.21;103027.25;5050755;28;20053;-68
2022/07/08 07:32:15;;;;;;;7.72;2.60;;;;;;;22.35;49.10;103027.94;5051113;28;20045;-71
2022/07/08 07:34:41;;;;;;;8.23;2.88;;;;;;;22.46;48.72;103025.16;5051244;28;20095;-69
2022/07/08 07:37:08;;;;;;;10.80;2.70;;;;;;;22.52;48.37;103020.00;5051052;28;20041;-69
2022/07/08 07:39:35;;;;;;;7.32;2.30;;;;;;;22.57;48.06;103027.81;5051764;28;20040;-69
2022/07/08 07:42:01;;;;;;;11.07;3.03;;;;;;;22.64;47.97;103029.00;5051397;28;20037;-69
2022/07/08 07:44:28;;;;;;;8.57;2.60;;;;;;;22.69;47.88;103026.72;5051487;28;20055;-69
2022/07/08 07:46:55;;;;;;;12.20;2.80;;;;;;;22.72;47.81;103029.19;5051460;28;20514;-69
2022/07/08 07:49:21;;;;;;;11.57;2.95;;;;;;;22.77;47.72;103029.66;5051304;28;20051;-70
2022/07/08 07:51:48;;;;;;;7.15;2.30;;;;;;;22.82;47.49;103027.41;5051228;28;20045;-69
2022/07/08 07:54:14;;;;;;;7.35;2.40;;;;;;;22.90;47.45;103018.50;5051450;28;20495;-72
2022/07/08 07:56:41;;;;;;;8.07;2.53;;;;;;;22.97;47.18;103021.56;5051213;28;20049;-68
2022/07/08 07:59:07;;;;;;;6.15;2.33;;;;;;;23.02;47.01;103025.63;5051548;28;20041;-68
2022/07/08 08:01:34;;;;;;;10.60;2.95;;;;;;;23.10;46.84;103030.44;5051279;28;20051;-68
2022/07/08 08:04:02;;;;;;;9.23;2.60;;;;;;;23.13;46.39;103024.69;5058085;28;20478;-69
2022/07/08 08:06:29;;;;;;;8.60;2.55;;;;;;;23.18;46.30;103024.28;5051065;28;20057;-69
2022/07/08 08:08:56;;;;;;;11.80;2.85;;;;;;;23.18;45.85;103024.28;5051191;28;20040;-69
2022/07/08 08:11:22;;;;;;;6.03;2.10;;;;;;;23.19;45.64;103029.63;5049810;28;20045;-71
2022/07/08 08:13:53;;;;;;;7.38;2.10;;;;;;;23.29;45.54;103027.78;5049687;28;20056;-69
2022/07/08 08:16:20;;;;;;;5.47;2.08;;;;;;;23.41;46.15;103023.91;5050354;28;20045;-68
2022/07/08 08:18:47;;;;;;;6.47;2.03;;;;;;;23.54;45.44;103026.41;5049492;28;20099;-68
2022/07/08 08:21:13;;;;;;;6.15;2.22;;;;;;;23.63;45.66;103033.81;5051163;28;20037;-70
2022/07/08 08:23:40;;;;;;;7.20;2.78;;;;;;;23.80;45.62;103029.53;5050744;28;20084;-69
2022/07/08 08:26:06;;;;;;;13.43;2.33;;;;;;;23.92;45.48;103033.88;5050887;28;20480;-69
2022/07/08 08:28:33;;;;;;;7.60;1.90;;;;;;;23.98;45.16;103033.31;5051016;28;20044;-69
2022/07/08 08:31:00;;;;;;;8.82;2.30;;;;;;;24.06;44.93;103029.84;5051127;28;20109;-68
2022/07/08 08:33:27;;;;;;;7.03;2.05;;;;;;;24.18;45.13;103034.16;5051337;28;20048;-68
2022/07/08 08:35:53;;;;;;;11.10;2.67;;;;;;;24.32;44.97;103036.50;5050015;28;20064;-69
2022/07/08 08:38:20;;;;;;;6.57;2.08;;;;;;;24.40;44.54;103030.28;5051355;28;20045;-69
2022/07/08 08:40:49;;;;;;;6.75;1.85;;;;;;;24.45;44.67;103033.44;5050981;28;20051;-70
2022/07/08 08:43:17;;;;;;;4.45;1.65;;;;;;;24.56;44.07;103029.69;5050858;28;20047;-69
2022/07/08 08:45:43;;;;;;;6.43;2.17;;;;;;;24.61;43.89;103031.00;5050743;28;20380;-70
2022/07/08 08:48:11;;;;;;;8.10;2.08;;;;;;;24.74;43.71;103035.28;5054263;28;20055;-70
2022/07/08 08:50:56;;;;;;;7.55;1.92;;;;;;;24.86;43.61;103036.84;5054717;28;20048;-70
2022/07/08 08:53:38;;;;;;;8.68;2.60;;;;;;;24.94;43.09;103035.09;5054436;28;20054;-68
2022/07/08 08:56:08;;;;;;;9.27;2.42;;;;;;;24.93;43.13;103030.59;5054191;28;20037;-68
2022/07/08 08:58:38;;;;;;;7.90;2.33;;;;;;;24.98;42.70;103027.44;5054590;28;20048;-69
2022/07/08 09:01:08;;;;;;;6.00;2.00;;;;;;;25.00;42.39;103029.00;5054684;28;20119;-68
2022/07/08 09:03:37;;;;;;;7.13;2.17;;;;;;;25.06;42.64;103027.53;5053241;28;20091;-69
2022/07/08 09:06:04;;;;;;;6.35;2.40;;;;;;;25.15;42.69;103023.88;5052812;28;20063;-68
2022/07/08 09:08:32;;;;;;;6.47;2.28;;;;;;;25.27;42.33;103028.19;5053120;28;20033;-68
2022/07/08 09:10:59;;;;;;;8.15;2.60;;;;;;;25.38;42.37;103018.00;5052911;28;20067;-70
2022/07/08 09:13:27;;;;;;;7.55;2.38;;;;;;;25.48;42.37;103016.94;5054668;28;20041;-70
2022/07/08 09:15:59;;;;;;;6.90;2.78;;;;;;;25.60;42.31;103017.56;5054235;28;20045;-71
2022/07/08 09:18:30;;;;;;;7.93;2.25;;;;;;;25.72;41.85;103013.59;5054484;28;20041;-69
2022/07/08 09:20:59;;;;;;;8.07;2.20;;;;;;;25.83;41.89;103018.00;5054218;28;20045;-70
2022/07/08 09:23:35;;;;;;;10.55;2.33;;;;;;;25.92;41.67;103012.44;5054252;28;20120;-70
2022/07/08 09:26:06;;;;;;;8.45;1.70;;;;;;;25.97;41.12;103009.22;5054190;28;20045;-70
2022/07/08 09:28:36;;;;;;;7.53;1.98;;;;;;;26.05;41.27;103013.97;5054285;28;20491;-69
2022/07/08 09:31:08;;;;;;;4.20;1.85;;;;;;;26.12;41.22;103015.91;5054098;28;20041;-69
2022/07/08 09:33:38;;;;;;;6.82;1.70;;;;;;;26.16;41.00;103027.47;5054467;28;20487;-69
2022/07/08 09:36:06;;;;;;;7.68;2.50;;;;;;;26.14;40.87;103021.25;5053420;28;20265;-70
2022/07/08 09:38:35;;;;;;;7.22;2.22;;;;;;;26.14;40.81;103022.13;5054504;28;20041;-69
2022/07/08 09:41:03;;;;;;;7.43;2.03;;;;;;;26.16;40.55;103013.72;5054264;28;20124;-70
2022/07/08 09:43:42;;;;;;;6.85;2.00;;;;;;;26.14;40.45;103010.25;5053795;28;20043;-69
2022/07/08 09:46:09;;;;;;;4.75;1.70;;;;;;;26.19;40.29;103003.25;5044316;28;20091;-68
2022/07/08 09:48:36;;;;;;;4.00;1.48;;;;;;;26.28;40.28;103006.91;5054308;28;20075;-68
2022/07/08 09:51:10;;;;;;;6.57;1.80;;;;;;;26.41;40.22;103007.41;5054037;28;20502;-68
2022/07/08 09:53:40;;;;;;;7.90;1.93;;;;;;;26.54;40.15;103005.09;5054313;28;20041;-68
2022/07/08 09:56:08;;;;;;;6.00;2.10;;;;;;;26.67;39.47;103007.41;5054109;28;20073;-71
2022/07/08 09:58:36;;;;;;;7.28;2.25;;;;;;;26.71;39.59;102996.91;5053303;28;20037;-71
2022/07/08 10:01:04;;;;;;;6.15;2.33;;;;;;;26.80;39.68;103005.09;5054153;28;20048;-71
2022/07/08 10:03:31;;;;;;;6.47;2.58;;;;;;;26.88;38.95;103001.53;5053982;28;20077;-68
2022/07/08 10:05:59;;;;;;;7.20;2.28;;;;;;;26.95;38.93;102997.06;5053459;28;20419;-71
2022/07/08 10:08:26;;;;;;;6.80;1.77;;;;;;;26.99;39.05;103005.91;5054001;28;20462;-69
2022/07/08 10:10:57;;;;;;;4.72;1.60;;;;;;;27.12;38.76;102998.03;5053985;28;20394;-71
2022/07/08 10:13:25;;;;;;;4.82;1.88;;;;;;;27.18;38.59;103001.00;5053966;28;20140;-69
2022/07/08 10:15:59;;;;;;;4.75;1.95;;;;;;;27.32;38.96;103012.44;5053216;28;20053;-70
2022/07/08 10:18:38;;;;;;;9.15;2.35;;;;;;;27.52;38.92;103005.63;5053477;28;20041;-72
2022/07/08 10:21:07;;;;;;;8.07;2.58;;;;;;;27.73;38.69;103007.94;5053362;28;20367;-71
2022/07/08 10:23:44;;;;;;;5.97;1.88;;;;;;;27.81;38.11;103008.81;5053902;28;20076;-70
2022/07/08 10:26:13;;;;;;;4.13;1.38;;;;;;;27.92;38.11;103012.28;5053388;28;20132;-72
2022/07/08 10:28:44;;;;;;;4.75;1.63;;;;;;;28.08;38.08;103004.00;5054068;28;20037;-70
2022/07/08 10:31:24;;;;;;;7.07;1.88;;;;;;;28.19;37.36;103011.97;5054141;28;20049;-70
2022/07/08 10:34:12;;;;;;;3.95;1.55;;;;;;;28.24;37.47;103014.22;5053493;28;20037;-69
2022/07/08 10:36:53;;;;;;;6.32;2.22;;;;;;;28.39;37.23;103005.09;5052679;28;20052;-70
2022/07/08 10:39:52;;;;;;;6.75;2.40;;;;;;;28.58;37.38;103003.88;5052975;28;20041;-70
2022/07/08 10:42:28;;;;;;;6.32;2.28;;;;;;;28.84;37.46;103017.47;5025704;28;20041;-69
2022/07/08 10:44:55;;;;;;;3.25;1.45;;;;;;;29.06;37.46;102999.28;5051710;28;20041;-69
2022/07/08 10:47:29;;;;;;;6.43;2.00;;;;;;;29.29;36.95;103007.66;5053029;28;20076;-70
2022/07/08 10:50:08;;;;;;;7.55;1.85;;;;;;;29.34;36.16;103002.44;5052026;28;20041;-69
2022/07/08 10:52:40;;;;;;;5.25;1.75;;;;;;;29.35;35.96;103004.16;5052822;28;20128;-72
2022/07/08 10:55:15;;;;;;;6.20;2.30;;;;;;;29.32;35.70;103010.91;5052331;28;20494;-70
2022/07/08 10:57:56;;;;;;;5.00;1.90;;;;;;;29.22;35.92;102998.34;5053097;28;20052;-69
2022/07/08 11:00:23;;;;;;;8.05;1.83;;;;;;;29.17;35.81;102998.03;5052630;28;20044;-70
2022/07/08 11:02:52;;;;;;;5.10;1.83;;;;;;;29.10;35.68;103000.66;5053195;28;20082;-70
2022/07/08 11:05:39;;;;;;;4.28;1.83;;;;;;;29.05;35.79;102992.03;5052449;28;20063;-70
2022/07/08 11:08:22;;;;;;;5.38;2.10;;;;;;;29.04;35.39;102993.06;5052967;28;20044;-69
2022/07/08 11:10:50;;;;;;;6.68;2.42;;;;;;;28.96;35.78;102993.06;5051687;28;20136;-70
2022/07/08 11:13:20;;;;;;;4.78;1.98;;;;;;;28.88;35.93;102993.97;5052451;28;20051;-70
2022/07/08 11:15:47;;;;;;;6.68;2.10;;;;;;;28.83;36.11;102989.97;5051547;28;20057;-68
2022/07/08 11:18:24;;;;;;;4.90;2.00;;;;;;;28.85;35.95;102998.97;5052660;28;20434;-71
2022/07/08 11:20:57;;;;;;;5.60;1.80;;;;;;;28.89;36.04;102992.91;5048142;28;20120;-69
2022/07/08 11:23:31;;;;;;;7.53;2.10;;;;;;;28.91;35.67;102996.38;5056667;28;20117;-70
2022/07/08 11:25:59;;;;;;;5.65;1.73;;;;;;;28.94;35.79;102987.72;5050736;28;20049;-70
2022/07/08 11:28:26;;;;;;;4.68;2.08;;;;;;;28.96;35.94;102996.69;5051865;28;20041;-69
2022/07/08 11:30:57;;;;;;;5.05;2.05;;;;;;;28.98;35.91;102989.06;5052241;28;20410;-69
2022/07/08 11:33:40;;;;;;;5.70;1.75;;;;;;;28.99;35.91;102985.31;5051959;28;20449;-69